Time;durP1;ratioP1;P1;durP2;ratioP2;P2;SDS_P1;SDS_P2;PMS_P1;PMS_P2;Temp;Humidity;BMP_temperature;BMP_pressure;BME280_temperature;BME280_humidity;BME280_pressure;Samples;Min_cycle;Max_cycle;Signal;HPM_P1;HPM_P2
2021/12/15 00:00:52;;;;;;;131.35;42.38;;;;;;;8.68;100.00;102651.13;4953742;28;20054;-81
2021/12/15 00:03:21;;;;;;;141.20;41.78;;;;;;;8.69;100.00;102655.53;4925861;28;20056;-81
2021/12/15 00:05:51;;;;;;;122.90;40.20;;;;;;;8.68;100.00;102657.25;4954779;28;20495;-82
2021/12/15 00:08:20;;;;;;;112.78;39.35;;;;;;;8.68;100.00;102653.75;4983567;28;20050;-81
2021/12/15 00:10:49;;;;;;;122.75;40.63;;;;;;;8.68;100.00;102656.38;4954662;28;20116;-79
2021/12/15 00:13:19;;;;;;;126.80;40.00;;;;;;;8.69;100.00;102658.16;4963238;28;20459;-80
2021/12/15 00:15:48;;;;;;;109.07;38.75;;;;;;;8.68;100.00;102657.25;4907232;28;20054;-82
2021/12/15 00:18:17;;;;;;;128.07;42.40;;;;;;;8.68;100.00;102654.63;4938923;28;20043;-80
2021/12/15 00:20:46;;;;;;;109.95;38.72;;;;;;;8.68;100.00;102657.25;4950428;28;20043;-80
2021/12/15 00:23:14;;;;;;;97.57;39.40;;;;;;;8.68;100.00;102657.25;4931478;28;20184;-80
2021/12/15 00:25:44;;;;;;;110.43;36.50;;;;;;;8.68;100.00;102654.63;4920074;28;20039;-81
2021/12/15 00:28:13;;;;;;;108.32;38.75;;;;;;;8.67;100.00;102668.59;4946418;28;20273;-81
2021/12/15 00:30:42;;;;;;;92.32;37.63;;;;;;;8.68;100.00;102664.25;4954778;28;20067;-81
2021/12/15 00:33:11;;;;;;;93.78;37.28;;;;;;;8.68;100.00;102661.63;4944287;28;20057;-81
2021/12/15 00:35:40;;;;;;;108.85;37.28;;;;;;;8.67;100.00;102670.34;4936207;28;20069;-81
2021/12/15 00:38:09;;;;;;;92.03;37.00;;;;;;;8.68;100.00;102659.00;4957969;28;20173;-81
2021/12/15 00:40:37;;;;;;;93.70;37.42;;;;;;;8.67;100.00;102654.56;4952791;28;20400;-81
2021/12/15 00:43:06;;;;;;;97.15;37.05;;;;;;;8.68;100.00;102664.25;4941766;28;20034;-81
2021/12/15 00:45:34;;;;;;;98.68;38.10;;;;;;;8.68;100.00;102656.38;4946224;28;20042;-80
2021/12/15 00:48:04;;;;;;;88.07;35.15;;;;;;;8.68;100.00;102651.13;4931250;28;20039;-80
2021/12/15 00:50:35;;;;;;;97.78;36.78;;;;;;;8.68;100.00;102653.75;4945788;28;20057;-80
2021/12/15 00:53:05;;;;;;;95.85;36.25;;;;;;;8.69;100.00;102650.25;4927275;28;20153;-80
2021/12/15 00:55:36;;;;;;;83.68;35.83;;;;;;;8.69;100.00;102655.53;4933571;28;20031;-80
2021/12/15 00:58:06;;;;;;;90.28;36.35;;;;;;;8.69;100.00;102655.53;4904258;28;20408;-80
2021/12/15 01:00:39;;;;;;;92.40;36.17;;;;;;;8.69;100.00;102647.63;4934696;28;20055;-82
2021/12/15 01:03:09;;;;;;;81.40;34.30;;;;;;;8.69;100.00;102659.03;4945891;28;20468;-80
2021/12/15 01:05:52;;;;;;;98.25;36.67;;;;;;;8.69;100.00;102658.16;4942458;28;20042;-80
2021/12/15 01:08:25;;;;;;;92.20;37.65;;;;;;;8.69;100.00;102666.03;4929996;28;20047;-80
2021/12/15 01:21:56;;;;;;;81.28;33.05;;;;;;;8.70;100.00;102667.84;4942344;28;20392;-81
2021/12/15 01:24:26;;;;;;;87.82;34.47;;;;;;;8.70;100.00;102673.09;4961573;28;20054;-80
2021/12/15 01:26:55;;;;;;;90.50;35.83;;;;;;;8.71;100.00;102677.50;4946231;28;20400;-80
2021/12/15 01:29:23;;;;;;;96.97;36.63;;;;;;;8.71;100.00;102678.38;4940755;28;20047;-80
2021/12/15 01:31:52;;;;;;;82.90;35.30;;;;;;;8.72;100.00;102674.06;4932829;28;20409;-81
2021/12/15 01:34:20;;;;;;;80.25;33.00;;;;;;;8.72;100.00;102680.19;4928899;29;20039;-80
2021/12/15 01:36:49;;;;;;;83.72;34.45;;;;;;;8.72;100.00;102672.31;4902670;28;20050;-81
2021/12/15 01:39:18;;;;;;;91.63;36.20;;;;;;;8.74;100.00;102682.91;4935889;28;20146;-81
2021/12/15 01:41:48;;;;;;;90.05;35.53;;;;;;;8.74;100.00;102677.63;4944579;28;20053;-81
2021/12/15 01:46:56;;;;;;;68.43;31.98;;;;;;;8.73;100.00;102678.44;4926160;28;20519;-82
2021/12/15 01:49:31;;;;;;;95.60;35.45;;;;;;;8.74;100.00;102682.91;4942455;28;20055;-81
2021/12/15 01:52:19;;;;;;;75.88;32.60;;;;;;;8.73;100.00;102675.81;4942724;28;20285;-81
2021/12/15 01:54:53;;;;;;;94.78;34.63;;;;;;;8.76;100.00;102678.59;4945184;28;20049;-81
2021/12/15 01:57:25;;;;;;;88.63;35.83;;;;;;;8.75;100.00;102684.66;4951012;28;20050;-80
2021/12/15 01:59:54;;;;;;;91.28;34.65;;;;;;;8.75;100.00;102685.59;4922695;28;20043;-81
2021/12/15 02:02:35;;;;;;;83.90;34.38;;;;;;;8.75;100.00;102689.94;4936933;28;20065;-78
2021/12/15 02:05:04;;;;;;;82.95;35.53;;;;;;;8.76;100.00;102691.72;4993500;28;20053;-77
2021/12/15 02:07:35;;;;;;;90.40;34.20;;;;;;;8.75;100.00;102693.47;5011422;28;20065;-77
2021/12/15 02:10:06;;;;;;;73.68;32.53;;;;;;;8.77;100.00;102696.13;4987757;28;20159;-76
2021/12/15 02:12:57;;;;;;;86.63;36.08;;;;;;;8.76;100.00;102702.25;4999043;28;20378;-77
2021/12/15 02:15:34;;;;;;;78.25;35.00;;;;;;;8.76;100.00;102692.63;4969178;28;20037;-77
2021/12/15 02:18:06;;;;;;;77.72;35.08;;;;;;;8.77;100.00;102685.63;4976117;28;20637;-77
2021/12/15 02:20:39;;;;;;;77.55;35.00;;;;;;;8.78;100.00;102687.44;4999016;28;20044;-77
2021/12/15 02:23:14;;;;;;;71.97;33.95;;;;;;;8.78;100.00;102685.69;4999563;28;20087;-78
2021/12/15 02:25:43;;;;;;;78.35;33.15;;;;;;;8.79;100.00;102678.72;5000162;28;20033;-77
2021/12/15 02:28:13;;;;;;;93.43;38.00;;;;;;;8.81;100.00;102684.00;4987226;28;20160;-77
2021/12/15 02:30:56;;;;;;;70.40;33.20;;;;;;;8.80;100.00;102688.38;4981114;28;20037;-77
2021/12/15 02:33:47;;;;;;;77.30;35.58;;;;;;;8.82;100.00;102678.81;4977876;28;20061;-77
2021/12/15 02:39:07;;;;;;;75.72;34.70;;;;;;;8.85;100.00;102672.81;4996195;28;20034;-77
2021/12/15 02:41:39;;;;;;;77.07;33.10;;;;;;;8.85;100.00;102672.81;4986510;28;20034;-77
2021/12/15 02:44:14;;;;;;;79.30;34.15;;;;;;;8.85;100.00;102671.06;5003551;28;20148;-77
2021/12/15 02:46:43;;;;;;;74.45;33.38;;;;;;;8.87;100.00;102681.66;4989787;28;20030;-77
2021/12/15 02:49:15;;;;;;;75.47;34.38;;;;;;;8.86;100.00;102675.47;5003375;28;20042;-77
2021/12/15 02:51:47;;;;;;;79.95;33.63;;;;;;;8.87;100.00;102679.03;5017536;28;20041;-77
2021/12/15 02:54:17;;;;;;;80.22;35.15;;;;;;;8.88;100.00;102670.28;4984847;28;20049;-77
2021/12/15 02:56:48;;;;;;;83.75;36.38;;;;;;;8.88;100.00;102679.06;5014316;28;20037;-77
2021/12/15 02:59:24;;;;;;;82.90;34.28;;;;;;;8.88;100.00;102681.69;5022167;28;20053;-77
2021/12/15 03:02:09;;;;;;;79.82;34.65;;;;;;;8.89;100.00;102672.09;5002533;28;20053;-77
2021/12/15 03:04:49;;;;;;;69.07;34.22;;;;;;;8.89;100.00;102672.09;5025546;28;20399;-77
2021/12/15 03:07:31;;;;;;;89.15;36.28;;;;;;;8.90;100.00;102673.88;4970700;28;20045;-77
2021/12/15 03:15:35;;;;;;;72.65;33.38;;;;;;;8.91;100.00;102668.69;4992367;28;20046;-77
2021/12/15 03:18:03;;;;;;;77.22;35.03;;;;;;;8.91;100.00;102671.31;4983436;28;20540;-77
2021/12/15 03:20:37;;;;;;;76.45;34.45;;;;;;;8.91;100.00;102676.56;5025190;28;20048;-77
2021/12/15 03:23:10;;;;;;;75.82;34.20;;;;;;;8.91;100.00;102676.56;4982451;28;20161;-77
2021/12/15 03:25:39;;;;;;;73.75;32.25;;;;;;;8.91;100.00;102673.03;4994172;28;20053;-76
2021/12/15 03:33:57;;;;;;;82.53;36.13;;;;;;;8.91;100.00;102681.81;4966888;28;20042;-76
2021/12/15 03:37:05;;;;;;;68.47;33.95;;;;;;;8.91;100.00;102679.19;4963100;28;20070;-77
2021/12/15 03:39:43;;;;;;;65.63;33.58;;;;;;;8.93;100.00;102674.00;5018803;28;20052;-76
2021/12/15 03:42:18;;;;;;;76.78;34.38;;;;;;;8.93;100.00;102684.53;4997194;28;20065;-77
2021/12/15 03:44:48;;;;;;;77.20;35.70;;;;;;;8.92;100.00;102673.13;4951138;28;20524;-76
2021/12/15 03:47:24;;;;;;;70.00;34.17;;;;;;;8.92;100.00;102677.44;4967916;28;20265;-77
2021/12/15 03:49:55;;;;;;;80.45;36.22;;;;;;;8.92;100.00;102667.84;4941487;28;20046;-77
2021/12/15 03:52:24;;;;;;;82.90;37.50;;;;;;;8.91;100.00;102670.41;4981549;28;20517;-77
2021/12/15 03:54:53;;;;;;;82.25;37.90;;;;;;;8.90;100.00;102666.91;4986488;28;20305;-77
2021/12/15 03:57:22;;;;;;;79.50;37.95;;;;;;;8.91;100.00;102671.31;4994263;28;20041;-77
2021/12/15 03:59:51;;;;;;;82.18;36.42;;;;;;;8.90;100.00;102668.59;4982266;28;20060;-77
2021/12/15 04:02:20;;;;;;;78.90;37.05;;;;;;;8.90;100.00;102666.91;4984886;28;20034;-77
2021/12/15 04:04:49;;;;;;;86.35;36.47;;;;;;;8.91;100.00;102671.31;4960448;28;20049;-77
2021/12/15 04:07:20;;;;;;;78.13;37.13;;;;;;;8.90;100.00;102661.66;4965814;28;20054;-77
2021/12/15 04:09:50;;;;;;;80.85;34.13;;;;;;;8.91;100.00;102670.41;5006848;28;20045;-77
2021/12/15 04:12:20;;;;;;;75.73;37.27;;;;;;;8.88;100.00;102665.91;4964350;28;20417;-77
2021/12/15 04:14:56;;;;;;;81.55;36.53;;;;;;;8.88;100.00;102671.16;4990099;28;20042;-77
2021/12/15 04:17:30;;;;;;;76.28;35.45;;;;;;;8.89;100.00;102674.72;4965435;28;20049;-77
2021/12/15 04:20:05;;;;;;;75.65;36.50;;;;;;;8.87;100.00;102668.50;4944719;28;20346;-77
2021/12/15 04:22:34;;;;;;;82.05;36.50;;;;;;;8.87;100.00;102674.66;5000648;28;20391;-77
2021/12/15 04:25:12;;;;;;;82.00;36.90;;;;;;;8.87;100.00;102668.50;5002990;28;20171;-77
2021/12/15 04:28:03;;;;;;;83.20;36.22;;;;;;;8.88;100.00;102671.16;4974978;28;20053;-77
2021/12/15 04:30:34;;;;;;;74.15;37.85;;;;;;;8.88;100.00;102670.28;4986790;28;20042;-76
2021/12/15 04:33:12;;;;;;;80.00;37.00;;;;;;;8.88;100.00;102681.69;4984566;28;20259;-77
2021/12/15 04:35:42;;;;;;;75.60;36.15;;;;;;;8.89;100.00;102682.59;4986452;28;20042;-77
2021/12/15 04:38:12;;;;;;;80.65;36.17;;;;;;;8.89;100.00;102687.88;4969361;28;20037;-77
2021/12/15 04:40:41;;;;;;;72.90;36.42;;;;;;;8.87;100.00;102672.03;5005673;28;20045;-76
2021/12/15 04:43:11;;;;;;;79.85;37.92;;;;;;;8.88;100.00;102675.53;4979307;28;20551;-77
2021/12/15 04:45:40;;;;;;;68.03;34.28;;;;;;;8.89;100.00;102686.13;5005736;28;20049;-76
2021/12/15 04:48:10;;;;;;;79.78;39.45;;;;;;;8.88;100.00;102680.81;4928690;28;20324;-77
2021/12/15 04:50:39;;;;;;;78.45;37.33;;;;;;;8.89;100.00;102695.75;5008516;28;20532;-77
2021/12/15 04:53:09;;;;;;;76.32;36.92;;;;;;;8.90;100.00;102705.41;4977429;28;20529;-78
2021/12/15 04:55:38;;;;;;;70.47;35.95;;;;;;;8.89;100.00;102701.00;4956523;28;20046;-77
2021/12/15 04:58:11;;;;;;;76.85;36.85;;;;;;;8.89;100.00;102704.53;4990827;28;20053;-76
2021/12/15 05:00:46;;;;;;;72.72;36.45;;;;;;;8.89;100.00;102701.91;5006715;28;20061;-77
2021/12/15 05:03:15;;;;;;;70.38;36.13;;;;;;;8.88;100.00;102700.09;4998726;28;20097;-77
2021/12/15 05:05:45;;;;;;;86.47;37.95;;;;;;;8.89;100.00;102703.66;4983910;28;20061;-77
2021/12/15 05:08:16;;;;;;;79.05;36.65;;;;;;;8.89;100.00;102703.66;4962745;28;20053;-77
2021/12/15 05:10:45;;;;;;;73.30;36.25;;;;;;;8.89;100.00;102714.16;4987174;28;20042;-78
2021/12/15 05:13:14;;;;;;;74.13;37.13;;;;;;;8.89;100.00;102717.69;4980202;28;20049;-77
2021/12/15 05:15:43;;;;;;;70.28;36.03;;;;;;;8.89;100.00;102715.03;5006384;28;20050;-77
2021/12/15 05:18:11;;;;;;;74.13;35.88;;;;;;;8.90;100.00;102716.84;4969856;28;20061;-77
2021/12/15 05:20:46;;;;;;;73.68;34.85;;;;;;;8.91;100.00;102713.38;4980004;28;20042;-77
2021/12/15 05:23:16;;;;;;;81.38;35.88;;;;;;;8.91;100.00;102708.13;4951399;28;20616;-77
2021/12/15 05:25:46;;;;;;;71.13;33.95;;;;;;;8.92;100.00;102715.19;5008455;28;20050;-77
2021/12/15 05:28:15;;;;;;;65.30;32.17;;;;;;;8.92;100.00;102711.63;4953163;28;20233;-77
2021/12/15 05:30:44;;;;;;;76.18;33.15;;;;;;;8.93;100.00;102713.44;4987462;28;20057;-77
2021/12/15 05:33:13;;;;;;;75.78;34.38;;;;;;;8.92;100.00;102716.88;4993984;28;20042;-77
2021/12/15 05:35:41;;;;;;;74.32;32.33;;;;;;;8.92;100.00;102723.06;4978208;28;20054;-77
2021/12/15 05:38:10;;;;;;;74.53;34.80;;;;;;;8.93;100.00;102716.06;4958762;28;20038;-76
2021/12/15 05:40:39;;;;;;;72.88;33.40;;;;;;;8.93;100.00;102716.94;5007081;28;20401;-77
2021/12/15 05:43:08;;;;;;;74.38;37.03;;;;;;;8.93;100.00;102718.69;5003560;28;20061;-76
2021/12/15 05:45:38;;;;;;;70.07;33.53;;;;;;;8.92;100.00;102714.25;4987559;28;20494;-78
2021/12/15 05:48:10;;;;;;;;;;;;;;;8.91;100.00;102710.75;4991259;28;20263;-77
2021/12/15 05:50:40;;;;;;;75.80;34.38;;;;;;;8.91;100.00;102715.13;5014457;28;20389;-78
2021/12/15 05:53:09;;;;;;;66.50;33.58;;;;;;;8.90;100.00;102715.94;4990173;28;20711;-76
2021/12/15 05:55:39;;;;;;;61.25;33.13;;;;;;;8.89;100.00;102716.78;4970459;28;20482;-77
2021/12/15 05:58:09;;;;;;;67.93;34.05;;;;;;;8.88;100.00;102723.75;4974784;28;20050;-77
2021/12/15 06:00:40;;;;;;;75.60;34.33;;;;;;;8.87;100.00;102714.09;4987688;28;20068;-77
2021/12/15 06:03:10;;;;;;;81.47;35.53;;;;;;;8.88;100.00;102721.13;4987404;28;20257;-77
2021/12/15 06:05:38;;;;;;;65.35;34.55;;;;;;;8.87;100.00;102716.72;5006384;28;20049;-77
2021/12/15 06:08:07;;;;;;;76.93;34.55;;;;;;;8.86;100.00;102725.44;4980784;28;20148;-76
2021/12/15 06:10:36;;;;;;;78.70;36.67;;;;;;;8.86;100.00;102725.44;4974031;28;20045;-77
2021/12/15 06:13:08;;;;;;;72.68;35.85;;;;;;;8.85;100.00;102721.03;4983946;28;20691;-77
2021/12/15 06:15:39;;;;;;;75.90;34.35;;;;;;;8.86;100.00;102717.53;4999201;28;20049;-77
2021/12/15 06:18:09;;;;;;;;;;;;;;;8.85;100.00;102723.66;4984041;28;20740;-77
2021/12/15 06:20:39;;;;;;;73.90;34.58;;;;;;;8.84;100.00;102721.84;5001478;28;19921;-77
2021/12/15 06:23:12;;;;;;;71.40;32.25;;;;;;;8.83;100.00;102730.59;4973112;28;20442;-78
2021/12/15 06:25:41;;;;;;;74.40;33.97;;;;;;;8.84;100.00;102732.34;4992021;28;20050;-77
2021/12/15 06:28:09;;;;;;;75.07;33.50;;;;;;;8.84;100.00;102732.34;4981480;28;20049;-77
2021/12/15 06:30:44;;;;;;;76.50;36.15;;;;;;;8.83;100.00;102740.19;5012398;28;20050;-78
2021/12/15 06:33:15;;;;;;;72.95;35.47;;;;;;;8.84;100.00;102731.47;5015866;28;20599;-77
2021/12/15 06:35:52;;;;;;;84.40;35.95;;;;;;;8.83;100.00;102741.09;5005115;28;20053;-77
2021/12/15 06:38:27;;;;;;;71.75;35.38;;;;;;;8.84;100.00;102749.88;4986027;28;20057;-77
2021/12/15 06:40:57;;;;;;;77.18;34.58;;;;;;;8.83;100.00;102738.47;5006025;28;20041;-77
2021/12/15 06:43:26;;;;;;;76.85;32.90;;;;;;;8.83;100.00;102748.06;4969866;28;20045;-77
2021/12/15 06:59:38;;;;;;;65.68;33.85;;;;;;;8.83;100.00;102761.22;4967610;28;20038;-77
2021/12/15 07:02:07;;;;;;;79.50;35.38;;;;;;;8.83;100.00;102754.25;4962993;28;20125;-77
2021/12/15 07:04:36;;;;;;;72.88;35.08;;;;;;;8.83;100.00;102755.94;4989492;28;20399;-77
2021/12/15 07:07:05;;;;;;;71.50;34.72;;;;;;;8.84;100.00;102760.38;4991536;28;20081;-76
2021/12/15 07:09:34;;;;;;;71.45;34.35;;;;;;;8.83;100.00;102758.56;5020655;28;20054;-77
2021/12/15 07:12:04;;;;;;;75.95;34.60;;;;;;;8.84;100.00;102760.38;4986254;28;20052;-77
2021/12/15 07:14:32;;;;;;;69.90;34.83;;;;;;;8.84;100.00;102758.66;4973915;28;20046;-77
2021/12/15 07:17:08;;;;;;;77.18;34.05;;;;;;;8.83;100.00;102763.84;4973599;28;20247;-77
2021/12/15 07:20:03;;;;;;;65.78;32.20;;;;;;;8.83;100.00;102759.50;5004627;28;20038;-77
2021/12/15 07:22:32;;;;;;;69.57;34.30;;;;;;;8.82;100.00;102762.06;5005450;28;20049;-77
2021/12/15 07:25:05;;;;;;;74.90;34.80;;;;;;;8.80;100.00;102762.00;5015121;28;20361;-77
2021/12/15 07:27:33;;;;;;;71.60;33.15;;;;;;;8.81;100.00;102769.06;4991470;28;20668;-77
2021/12/15 07:30:05;;;;;;;71.15;33.47;;;;;;;8.81;100.00;102763.81;4938588;28;20046;-77
2021/12/15 07:32:35;;;;;;;65.72;32.85;;;;;;;8.83;100.00;102770.00;4995706;28;20072;-77
2021/12/15 07:35:07;;;;;;;65.03;33.17;;;;;;;8.83;100.00;102766.47;4999444;28;20045;-77
2021/12/15 07:37:35;;;;;;;73.55;33.25;;;;;;;8.84;100.00;102770.91;4982589;28;20171;-77
2021/12/15 07:40:10;;;;;;;73.70;34.88;;;;;;;8.84;100.00;102773.53;5004674;28;20513;-77
2021/12/15 07:42:54;;;;;;;76.05;33.33;;;;;;;8.84;100.00;102774.41;4978648;28;20125;-77
2021/12/15 07:45:26;;;;;;;68.45;33.30;;;;;;;8.85;100.00;102778.88;4971090;28;20054;-77
2021/12/15 07:47:58;;;;;;;77.57;35.15;;;;;;;8.86;100.00;102780.63;4998730;28;20057;-77
2021/12/15 07:50:28;;;;;;;65.10;32.08;;;;;;;8.86;100.00;102783.25;4971896;28;20404;-77
2021/12/15 07:52:57;;;;;;;63.55;32.17;;;;;;;8.87;100.00;102768.41;4970606;28;20058;-77
2021/12/15 07:55:25;;;;;;;73.32;32.70;;;;;;;8.88;100.00;102778.06;5000292;28;20699;-77
2021/12/15 07:57:54;;;;;;;64.93;31.20;;;;;;;8.89;100.00;102774.63;4982436;28;20391;-77
2021/12/15 08:00:23;;;;;;;64.63;31.08;;;;;;;8.90;100.00;102784.28;4936450;28;20048;-77
2021/12/15 08:02:53;;;;;;;64.18;31.23;;;;;;;8.90;100.00;102786.91;4972329;28;20064;-77
2021/12/15 08:05:22;;;;;;;64.47;30.23;;;;;;;8.89;100.00;102791.28;4958482;28;20049;-76
2021/12/15 08:07:50;;;;;;;59.53;29.73;;;;;;;8.89;100.00;102793.91;4984930;28;20046;-77
2021/12/15 08:10:20;;;;;;;62.15;31.27;;;;;;;8.91;100.00;102800.13;4983735;28;20423;-77
2021/12/15 08:12:50;;;;;;;53.55;27.10;;;;;;;8.92;100.00;102798.41;4970083;28;20355;-77
2021/12/15 08:15:19;;;;;;;55.95;27.65;;;;;;;8.93;100.00;102800.22;4980774;28;20085;-77
2021/12/15 08:17:51;;;;;;;51.88;28.42;;;;;;;8.94;100.00;102801.97;4930543;28;20900;-77
2021/12/15 08:20:24;;;;;;;52.40;26.20;;;;;;;8.95;100.00;102795.91;4965196;28;20026;-77
2021/12/15 08:22:53;;;;;;;56.08;27.75;;;;;;;8.95;100.00;102794.16;4997921;28;20161;-77
2021/12/15 08:25:22;;;;;;;51.15;27.67;;;;;;;8.97;100.00;102795.13;4973570;28;20054;-77
2021/12/15 08:27:51;;;;;;;53.28;27.20;;;;;;;8.98;100.00;102798.66;4952321;28;20704;-77
2021/12/15 08:30:25;;;;;;;49.05;25.45;;;;;;;8.98;100.00;102799.56;4971302;28;20037;-77
2021/12/15 08:33:02;;;;;;;55.22;26.88;;;;;;;8.98;100.00;102799.56;4967458;28;20070;-77
2021/12/15 08:35:41;;;;;;;63.40;27.20;;;;;;;9.02;100.00;102797.03;5001583;28;20045;-77
2021/12/15 08:38:11;;;;;;;49.28;23.88;;;;;;;9.02;100.00;102808.47;4981968;28;20041;-77
2021/12/15 08:40:41;;;;;;;46.60;24.13;;;;;;;9.03;100.00;102807.63;4985795;28;20038;-77
2021/12/15 08:43:12;;;;;;;45.45;22.85;;;;;;;9.03;100.00;102804.09;4989307;28;20050;-77
2021/12/15 08:45:42;;;;;;;;;;;;;;;9.02;100.00;102811.09;4958878;28;20042;-77
2021/12/15 08:48:10;;;;;;;44.08;21.63;;;;;;;9.04;100.00;102819.06;4992631;28;20481;-78
2021/12/15 08:50:41;;;;;;;35.53;21.60;;;;;;;9.04;100.00;102824.31;4964669;28;20030;-78
2021/12/15 08:53:12;;;;;;;31.23;18.73;;;;;;;9.05;100.00;102820.84;4972200;28;20050;-77
2021/12/15 08:55:45;;;;;;;40.78;19.13;;;;;;;9.07;100.00;102819.16;4982390;28;20034;-78
2021/12/15 08:58:17;;;;;;;34.10;18.52;;;;;;;9.07;100.00;102820.06;4988668;28;20509;-78
2021/12/15 09:00:51;;;;;;;36.75;17.75;;;;;;;9.11;100.00;102818.44;4984811;28;20045;-78
2021/12/15 09:03:21;;;;;;;33.53;16.30;;;;;;;9.10;100.00;102821.94;4957077;28;20050;-77
2021/12/15 09:05:52;;;;;;;29.43;15.27;;;;;;;9.12;100.00;102830.78;4965846;28;20266;-76
2021/12/15 09:08:23;;;;;;;35.30;15.18;;;;;;;9.12;100.00;102830.78;4995249;28;20049;-77
2021/12/15 09:10:55;;;;;;;28.42;14.63;;;;;;;9.11;100.00;102828.97;4968447;28;20248;-77
2021/12/15 09:13:30;;;;;;;31.77;16.25;;;;;;;9.12;100.00;102833.41;4989938;28;20046;-78
2021/12/15 09:16:02;;;;;;;26.20;14.73;;;;;;;9.08;100.00;102832.38;5010790;28;20712;-77
2021/12/15 09:18:31;;;;;;;28.10;14.70;;;;;;;9.08;100.00;102847.28;4977780;28;20050;-77
2021/12/15 09:21:01;;;;;;;32.75;15.23;;;;;;;9.08;100.00;102840.28;4978869;28;20041;-77
2021/12/15 09:23:29;;;;;;;37.85;16.13;;;;;;;9.07;100.00;102833.22;4980427;28;20392;-77
2021/12/15 09:25:58;;;;;;;25.48;14.40;;;;;;;9.09;100.00;102835.91;4970746;28;20514;-77
2021/12/15 09:28:30;;;;;;;26.08;14.25;;;;;;;9.11;100.00;102845.69;4991264;28;20410;-78
2021/12/15 09:30:59;;;;;;;28.25;15.50;;;;;;;9.14;100.00;102847.53;5000400;28;20364;-78
2021/12/15 09:33:30;;;;;;;28.63;14.90;;;;;;;9.17;100.00;102838.03;4973909;28;20057;-78
2021/12/15 09:36:00;;;;;;;29.00;15.43;;;;;;;9.17;100.00;102843.28;4990403;28;20030;-77
2021/12/15 09:38:30;;;;;;;27.15;13.90;;;;;;;9.21;100.00;102843.44;4990299;28;20398;-78
2021/12/15 09:41:01;;;;;;;28.25;15.48;;;;;;;9.22;100.00;102838.19;4981580;28;20252;-77
2021/12/15 09:43:31;;;;;;;31.67;16.27;;;;;;;9.25;100.00;102838.34;5003031;28;20045;-77
2021/12/15 09:46:07;;;;;;;26.45;15.45;;;;;;;9.26;100.00;102848.03;5003887;28;20057;-78
2021/12/15 10:02:55;;;;;;;30.38;15.68;;;;;;;9.43;100.00;102850.44;4907461;29;20071;-78
2021/12/15 10:11:13;;;;;;;26.73;13.73;;;;;;;9.47;100.00;102852.34;4983651;28;20034;-78
2021/12/15 10:19:37;;;;;;;30.65;13.43;;;;;;;9.50;100.00;102847.22;4994952;28;20053;-78
2021/12/15 10:22:29;;;;;;;26.25;12.50;;;;;;;9.52;100.00;102856.06;4995257;28;20057;-78
2021/12/15 10:25:03;;;;;;;21.63;12.68;;;;;;;9.51;100.00;102863.06;4997849;28;20079;-77
2021/12/15 10:27:37;;;;;;;24.10;13.13;;;;;;;9.51;100.00;102860.44;5006765;28;20037;-78
2021/12/15 10:30:12;;;;;;;27.33;12.32;;;;;;;9.50;100.00;102863.00;4979937;28;20045;-78
2021/12/15 10:32:43;;;;;;;23.23;12.98;;;;;;;9.49;100.00;102855.94;5003737;28;20125;-77
2021/12/15 10:35:20;;;;;;;16.50;11.88;;;;;;;9.51;100.00;102849.91;4976974;28;20520;-77
2021/12/15 10:38:18;;;;;;;22.70;11.10;;;;;;;9.52;100.00;102856.06;5008926;28;20054;-77
2021/12/15 10:40:57;;;;;;;23.67;11.70;;;;;;;9.50;100.00;102858.63;4983855;28;20339;-77
2021/12/15 10:43:59;;;;;;;19.55;9.77;;;;;;;9.49;100.00;102863.81;4974179;28;20038;-79
2021/12/15 10:46:42;;;;;;;24.13;11.57;;;;;;;9.51;100.00;102859.56;5001429;28;20231;-78
2021/12/15 10:49:29;;;;;;;18.70;9.77;;;;;;;9.53;100.00;102857.88;5000207;28;20038;-78
2021/12/15 10:52:03;;;;;;;17.08;9.77;;;;;;;9.53;100.00;102855.25;4980111;28;20049;-77
2021/12/15 10:54:50;;;;;;;22.90;10.57;;;;;;;9.55;100.00;102850.94;4993746;28;20117;-78
2021/12/15 10:57:28;;;;;;;16.58;9.93;;;;;;;9.55;100.00;102851.81;4990185;28;20054;-78
2021/12/15 11:00:00;;;;;;;19.35;10.43;;;;;;;9.57;100.00;102849.25;4997495;28;20144;-77
2021/12/15 11:02:39;;;;;;;18.15;9.88;;;;;;;9.61;100.00;102860.81;5005257;28;20041;-78
2021/12/15 11:05:14;;;;;;;15.67;9.70;;;;;;;9.61;100.00;102868.69;5015873;28;20060;-77
2021/12/15 11:07:54;;;;;;;16.60;8.63;;;;;;;9.62;100.00;102867.84;4992642;28;20293;-77
2021/12/15 11:10:27;;;;;;;17.92;8.77;;;;;;;9.62;100.00;102879.28;4994914;28;20045;-77
2021/12/15 11:13:04;;;;;;;18.83;10.45;;;;;;;9.59;100.00;102868.63;5012620;28;20042;-77
2021/12/15 11:15:40;;;;;;;15.43;10.00;;;;;;;9.58;100.00;102869.47;4973244;28;20045;-77
2021/12/15 11:18:11;;;;;;;18.90;10.45;;;;;;;9.59;100.00;102866.00;4996989;28;20060;-78
2021/12/15 11:20:41;;;;;;;;;;;;;;;9.62;100.00;102868.78;4980061;28;20384;-77
2021/12/15 11:23:24;;;;;;;17.55;9.68;;;;;;;9.64;100.00;102872.34;4988702;28;19925;-77
2021/12/15 11:26:00;;;;;;;18.58;10.43;;;;;;;9.65;100.00;102870.63;4972116;28;20618;-77
2021/12/15 11:28:34;;;;;;;16.05;10.18;;;;;;;9.66;100.00;102872.38;4997440;28;20046;-77
2021/12/15 11:31:08;;;;;;;20.58;10.90;;;;;;;9.67;100.00;102861.03;5005361;28;20041;-77
2021/12/15 11:33:39;;;;;;;21.35;10.52;;;;;;;9.68;100.00;102863.75;4995595;28;20042;-77
2021/12/15 11:36:10;;;;;;;20.80;10.93;;;;;;;9.71;100.00;102860.31;5003088;28;20077;-77
2021/12/15 11:38:52;;;;;;;23.40;11.15;;;;;;;9.70;100.00;102855.91;4965420;28;20049;-77
2021/12/15 11:41:21;;;;;;;17.98;10.52;;;;;;;9.69;100.00;102870.78;4970932;28;20061;-77
2021/12/15 11:43:50;;;;;;;17.73;10.90;;;;;;;9.68;100.00;102863.75;4999861;28;20248;-77
2021/12/15 11:46:31;;;;;;;18.67;10.02;;;;;;;9.69;100.00;102859.34;4990721;28;20056;-76
2021/12/15 11:49:06;;;;;;;18.13;10.77;;;;;;;9.68;100.00;102858.47;5005216;28;20054;-77
2021/12/15 11:51:54;;;;;;;20.42;9.80;;;;;;;9.71;100.00;102850.66;4988748;28;20061;-77
2021/12/15 11:54:29;;;;;;;21.25;10.40;;;;;;;9.72;100.00;102854.22;4980322;28;20034;-77
2021/12/15 11:57:01;;;;;;;18.65;9.90;;;;;;;9.74;100.00;102852.53;4977638;28;20060;-77
2021/12/15 11:59:39;;;;;;;16.15;9.63;;;;;;;9.77;100.00;102842.13;4986306;28;20030;-77
2021/12/15 12:02:27;;;;;;;18.10;8.60;;;;;;;9.80;100.00;102854.53;5006045;28;20049;-77
2021/12/15 12:05:00;;;;;;;14.15;8.55;;;;;;;9.80;100.00;102859.78;4986051;28;20046;-77
2021/12/15 12:07:54;;;;;;;24.38;10.68;;;;;;;9.79;100.00;102860.59;5006612;28;20054;-77
2021/12/15 12:10:28;;;;;;;14.63;7.78;;;;;;;9.79;100.00;102848.34;4963379;28;20034;-77
2021/12/15 12:13:07;;;;;;;13.52;6.93;;;;;;;9.78;100.00;102859.72;4996544;28;20343;-77
2021/12/15 12:15:39;;;;;;;13.80;7.53;;;;;;;9.75;100.00;102864.84;4987767;28;20402;-77
2021/12/15 12:18:15;;;;;;;12.90;8.10;;;;;;;9.73;100.00;102862.19;5004304;28;20410;-76
2021/12/15 12:20:56;;;;;;;13.98;6.95;;;;;;;9.69;100.00;102865.50;4975913;28;20065;-76
2021/12/15 12:23:26;;;;;;;;;;;;;;;9.67;100.00;102861.03;4989387;28;20037;-77
2021/12/15 12:25:57;;;;;;;11.05;6.68;;;;;;;9.67;100.00;102866.31;4965538;28;20138;-76
2021/12/15 12:28:29;;;;;;;11.68;6.80;;;;;;;9.65;100.00;102860.97;4975480;28;20387;-76
2021/12/15 12:31:03;;;;;;;16.80;7.50;;;;;;;9.65;100.00;102858.34;4994046;28;20077;-77
2021/12/15 12:33:34;;;;;;;18.35;7.82;;;;;;;9.65;100.00;102852.19;4988228;28;20526;-78
2021/12/15 12:36:09;;;;;;;13.07;6.85;;;;;;;9.66;100.00;102854.88;4971956;28;20153;-77
2021/12/15 12:38:41;;;;;;;17.65;6.78;;;;;;;9.67;100.00;102854.03;4966918;28;20582;-77
2021/12/15 12:41:14;;;;;;;11.80;6.63;;;;;;;9.69;100.00;102854.97;4931780;28;20049;-76
2021/12/15 12:43:54;;;;;;;10.77;5.70;;;;;;;9.67;100.00;102855.78;4986152;28;20353;-77